createdAt,value
2022-10-04T00:00:17.193Z,11.20
2022-10-04T00:01:17.201Z,7.40
2022-10-04T00:02:17.280Z,8.80
2022-10-04T00:03:17.305Z,7.40
2022-10-04T00:04:17.252Z,6.50
2022-10-04T00:05:17.253Z,4.50
2022-10-04T00:06:17.265Z,5.30
2022-10-04T00:07:17.284Z,5.00
2022-10-04T00:08:17.283Z,6.30
2022-10-04T00:09:17.313Z,6.70
2022-10-04T00:10:17.302Z,6.30
2022-10-04T00:11:17.324Z,8.60
2022-10-04T00:12:17.324Z,6.20
2022-10-04T00:13:17.352Z,8.70
2022-10-04T00:14:17.375Z,6.30
2022-10-04T00:15:17.373Z,6.50
2022-10-04T00:16:17.396Z,8.20
2022-10-04T00:17:17.394Z,4.70
2022-10-04T00:18:17.405Z,6.20
2022-10-04T00:19:17.446Z,5.80
2022-10-04T00:20:17.434Z,5.70
2022-10-04T00:21:17.456Z,5.60
2022-10-04T00:22:17.506Z,6.10
2022-10-04T00:23:17.495Z,9.30
2022-10-04T00:24:17.514Z,9.40
2022-10-04T00:25:17.524Z,7.00
2022-10-04T00:26:17.527Z,7.00
2022-10-04T00:27:17.549Z,10.10
2022-10-04T00:28:17.588Z,8.50
2022-10-04T00:29:17.596Z,9.90
2022-10-04T00:30:17.595Z,7.70
2022-10-04T00:31:17.673Z,4.70
2022-10-04T00:32:17.626Z,6.20
2022-10-04T00:33:17.647Z,6.60
2022-10-04T00:34:17.686Z,5.70
2022-10-04T00:35:17.677Z,6.70
2022-10-04T00:36:17.695Z,7.50
2022-10-04T00:37:17.715Z,7.00
2022-10-04T00:38:17.728Z,7.10
2022-10-04T00:39:17.758Z,4.90
2022-10-04T00:40:17.758Z,6.40
2022-10-04T00:41:17.780Z,5.50
2022-10-04T00:42:17.787Z,5.80
2022-10-04T00:43:17.807Z,5.50
2022-10-04T00:44:17.829Z,5.00
2022-10-04T00:45:17.840Z,6.80
2022-10-04T00:46:17.881Z,4.00
2022-10-04T00:47:17.879Z,7.00
2022-10-04T00:48:17.901Z,6.50
2022-10-04T00:49:17.938Z,5.30
2022-10-04T00:50:17.930Z,7.30
2022-10-04T00:51:17.951Z,6.80
2022-10-04T00:52:17.961Z,9.10
2022-10-04T00:53:17.991Z,9.20
2022-10-04T00:54:18.022Z,7.00
2022-10-04T00:55:18.031Z,8.40
2022-10-04T00:56:18.041Z,8.70
2022-10-04T00:57:18.062Z,6.40
2022-10-04T00:58:18.073Z,6.60
2022-10-04T00:59:18.107Z,9.20
2022-10-04T01:00:18.105Z,11.30
2022-10-04T01:01:18.140Z,9.00
2022-10-04T01:02:18.239Z,6.20
2022-10-04T01:03:18.154Z,7.70
2022-10-04T01:04:18.172Z,6.40
2022-10-04T01:05:18.191Z,5.40
2022-10-04T01:06:18.184Z,3.20
2022-10-04T01:07:18.204Z,4.10
2022-10-04T01:08:18.223Z,6.20
2022-10-04T01:09:18.264Z,8.60
2022-10-04T01:10:18.261Z,3.80
2022-10-04T01:11:18.275Z,5.30
2022-10-04T01:12:18.285Z,9.40
2022-10-04T01:13:18.306Z,5.60
2022-10-04T01:14:39.375Z,4.80
2022-10-04T01:15:18.346Z,6.90
2022-10-04T01:16:18.418Z,6.30
2022-10-04T01:17:18.387Z,7.20
2022-10-04T01:18:18.406Z,6.10
2022-10-04T01:19:18.447Z,7.10
2022-10-04T01:20:18.455Z,4.40
2022-10-04T01:21:18.465Z,5.70
2022-10-04T01:22:18.485Z,6.40
2022-10-04T01:23:18.518Z,6.60
2022-10-04T01:24:18.526Z,6.50
2022-10-04T01:25:18.557Z,5.20
2022-10-04T01:26:18.569Z,4.70
2022-10-04T01:27:18.597Z,6.80
2022-10-04T01:28:18.640Z,4.70
2022-10-04T01:29:18.653Z,6.60
2022-10-04T01:30:18.659Z,4.80
2022-10-04T01:31:18.720Z,7.20
2022-10-04T01:32:18.698Z,6.20
2022-10-04T01:33:18.739Z,6.20
2022-10-04T01:34:18.760Z,5.20
2022-10-04T01:35:18.777Z,6.60
2022-10-04T01:36:18.809Z,8.40
2022-10-04T01:37:18.840Z,4.50
2022-10-04T01:38:18.868Z,5.70
2022-10-04T01:39:18.908Z,8.50
2022-10-04T01:40:18.912Z,6.60
2022-10-04T01:41:18.940Z,7.00
2022-10-04T01:42:18.950Z,7.10
2022-10-04T01:43:18.992Z,7.10
2022-10-04T01:44:19.020Z,6.50
2022-10-04T01:45:19.041Z,5.70
2022-10-04T01:46:19.053Z,5.30
2022-10-04T01:47:19.081Z,7.30
2022-10-04T01:48:19.102Z,5.20
2022-10-04T01:49:19.121Z,6.10
2022-10-04T01:50:19.142Z,4.60
2022-10-04T01:51:19.162Z,6.80
2022-10-04T01:52:19.172Z,5.00
2022-10-04T01:53:19.202Z,7.60
2022-10-04T01:54:19.242Z,3.90
2022-10-04T01:55:19.242Z,7.40
2022-10-04T01:56:19.280Z,8.60
2022-10-04T01:57:19.291Z,5.10
2022-10-04T01:58:19.313Z,5.30
2022-10-04T01:59:19.343Z,5.70
2022-10-04T02:00:19.351Z,6.80
2022-10-04T02:01:19.431Z,8.10
2022-10-04T02:02:19.401Z,7.40
2022-10-04T02:03:19.434Z,6.10
2022-10-04T02:04:22.330Z,5.00
2022-10-04T02:05:19.494Z,5.00
2022-10-04T02:06:19.505Z,4.30
2022-10-04T02:07:19.545Z,4.30
2022-10-04T02:08:19.572Z,3.70
2022-10-04T02:09:19.605Z,5.30
2022-10-04T02:10:19.612Z,6.40
2022-10-04T02:11:19.646Z,3.90
2022-10-04T02:12:19.675Z,5.90
2022-10-04T02:13:19.698Z,4.40
2022-10-04T02:14:19.733Z,7.00
2022-10-04T02:15:19.748Z,4.70
2022-10-04T02:16:19.815Z,4.00
2022-10-04T02:17:19.807Z,5.40
2022-10-04T02:18:19.836Z,7.40
2022-10-04T02:19:19.868Z,4.50
2022-10-04T02:20:19.898Z,3.90
2022-10-04T02:21:19.916Z,8.90
2022-10-04T02:22:19.949Z,3.30
2022-10-04T02:23:20.003Z,4.60
2022-10-04T02:24:20.027Z,5.20
2022-10-04T02:25:20.047Z,4.30
2022-10-04T02:26:20.066Z,5.50
2022-10-04T02:27:20.098Z,6.30
2022-10-04T02:28:20.174Z,7.90
2022-10-04T02:29:20.170Z,6.90
2022-10-04T02:30:20.189Z,4.30
2022-10-04T02:31:20.267Z,4.00
2022-10-04T02:32:20.239Z,4.60
2022-10-04T02:33:20.261Z,4.70
2022-10-04T02:34:20.302Z,4.60
2022-10-04T02:35:20.320Z,3.30
2022-10-04T02:36:20.350Z,4.60
2022-10-04T02:37:20.378Z,6.50
2022-10-04T02:38:20.391Z,9.00
2022-10-04T02:39:20.430Z,4.60
2022-10-04T02:40:20.433Z,7.60
2022-10-04T02:41:20.472Z,4.80
2022-10-04T02:42:20.491Z,7.00
2022-10-04T02:43:20.521Z,4.10
2022-10-04T02:44:20.551Z,7.10
2022-10-04T02:45:20.573Z,4.60
2022-10-04T02:46:20.633Z,5.70
2022-10-04T02:47:20.623Z,3.70
2022-10-04T02:48:20.643Z,5.20
2022-10-04T02:49:20.683Z,3.90
2022-10-04T02:50:20.693Z,4.90
2022-10-04T02:51:20.722Z,3.80
2022-10-04T02:52:20.733Z,6.30
2022-10-04T02:53:20.773Z,4.60
2022-10-04T02:54:20.800Z,4.10
2022-10-04T02:55:20.804Z,8.00
2022-10-04T02:56:20.832Z,7.40
2022-10-04T02:57:20.863Z,3.40
2022-10-04T02:58:20.881Z,4.30
2022-10-04T02:59:20.945Z,9.70
2022-10-04T03:00:20.935Z,8.20
2022-10-04T03:01:21.012Z,13.00
2022-10-04T03:02:28.734Z,5.80
2022-10-04T03:03:22.004Z,6.30
2022-10-04T03:04:21.037Z,19.70
2022-10-04T03:05:21.056Z,21.80
2022-10-04T03:06:21.085Z,17.50
2022-10-04T03:07:21.096Z,15.70
2022-10-04T03:08:21.115Z,12.90
2022-10-04T03:09:22.014Z,14.20
2022-10-04T03:10:21.156Z,12.30
2022-10-04T03:11:21.175Z,15.90
2022-10-04T03:12:21.196Z,12.50
2022-10-04T03:13:21.229Z,7.40
2022-10-04T03:14:21.277Z,10.80
2022-10-04T03:15:21.276Z,10.00
2022-10-04T03:16:21.381Z,8.60
2022-10-04T03:17:21.313Z,10.60
2022-10-04T03:18:21.357Z,7.60
2022-10-04T03:19:21.378Z,18.20
2022-10-04T03:20:21.494Z,10.30
2022-10-04T03:21:21.418Z,10.80
2022-10-04T03:22:21.438Z,11.10
2022-10-04T03:23:21.455Z,21.60
2022-10-04T03:24:21.500Z,22.50
2022-10-04T03:25:21.509Z,35.10
2022-10-04T03:26:21.536Z,15.40
2022-10-04T03:27:21.559Z,19.00
2022-10-04T03:28:21.650Z,19.60
2022-10-04T03:29:21.624Z,19.50
2022-10-04T03:30:21.639Z,27.90
2022-10-04T03:31:21.705Z,28.10
2022-10-04T03:32:21.691Z,10.90
2022-10-04T03:33:21.710Z,16.50
2022-10-04T03:34:21.761Z,28.00
2022-10-04T03:35:21.781Z,22.70
2022-10-04T03:36:21.800Z,20.40
2022-10-04T03:37:21.841Z,23.00
2022-10-04T03:38:21.862Z,22.80
2022-10-04T03:39:21.880Z,18.30
2022-10-04T03:40:21.882Z,17.30
2022-10-04T03:41:21.900Z,13.90
2022-10-04T03:42:21.922Z,14.40
2022-10-04T03:43:21.952Z,16.50
2022-10-04T03:44:21.982Z,11.20
2022-10-04T03:45:21.981Z,11.70
2022-10-04T03:46:22.001Z,8.00
2022-10-04T03:47:22.017Z,6.40
2022-10-04T03:48:22.043Z,8.30
2022-10-04T03:49:22.093Z,13.40
2022-10-04T03:50:22.094Z,13.70
2022-10-04T03:51:22.104Z,9.70
2022-10-04T03:52:22.133Z,14.70
2022-10-04T03:53:22.144Z,9.00
2022-10-04T03:54:22.200Z,14.00
2022-10-04T03:55:22.186Z,12.20
2022-10-04T03:56:22.214Z,12.80
2022-10-04T03:57:22.226Z,15.90
2022-10-04T03:58:22.265Z,12.00
2022-10-04T03:59:22.282Z,9.50
2022-10-04T04:00:22.295Z,10.00
2022-10-04T04:01:22.347Z,14.60
2022-10-04T04:02:22.390Z,14.20
2022-10-04T04:03:22.348Z,11.30
2022-10-04T04:04:22.396Z,14.00
2022-10-04T04:05:22.386Z,14.60
2022-10-04T04:06:22.431Z,13.20
2022-10-04T04:07:22.459Z,12.10
2022-10-04T04:08:22.467Z,12.40
2022-10-04T04:09:22.477Z,9.80
2022-10-04T04:10:22.500Z,11.10
2022-10-04T04:11:22.521Z,6.80
2022-10-04T04:12:22.535Z,9.20
2022-10-04T04:13:22.558Z,10.10
2022-10-04T04:14:22.588Z,8.20
2022-10-04T04:15:22.588Z,7.50
2022-10-04T04:16:22.733Z,6.30
2022-10-04T04:17:22.629Z,7.10
2022-10-04T04:18:22.650Z,8.90
2022-10-04T04:19:22.691Z,10.00
2022-10-04T04:20:22.700Z,11.10
2022-10-04T04:21:22.721Z,8.40
2022-10-04T04:22:22.739Z,7.30
2022-10-04T04:23:22.751Z,6.80
2022-10-04T04:24:22.780Z,6.50
2022-10-04T04:25:22.780Z,6.60
2022-10-04T04:26:22.810Z,8.50
2022-10-04T04:27:27.053Z,11.30
2022-10-04T04:28:23.914Z,7.50
2022-10-04T04:29:22.880Z,6.70
2022-10-04T04:30:22.881Z,6.90
2022-10-04T04:31:22.919Z,7.40
2022-10-04T04:32:22.921Z,7.80
2022-10-04T04:33:22.929Z,10.20
2022-10-04T04:34:22.972Z,8.00
2022-10-04T04:35:22.941Z,6.20
2022-10-04T04:36:22.962Z,6.60
2022-10-04T04:37:22.962Z,6.60
2022-10-04T04:38:22.973Z,6.60
2022-10-04T04:39:22.994Z,5.40
2022-10-04T04:40:23.004Z,6.90
2022-10-04T04:41:23.002Z,7.80
2022-10-04T04:42:23.033Z,5.90
2022-10-04T04:43:23.165Z,8.40
2022-10-04T04:44:23.064Z,7.20
2022-10-04T04:45:23.052Z,8.00
2022-10-04T04:46:27.447Z,6.60
2022-10-04T04:47:24.075Z,10.40
2022-10-04T04:48:23.113Z,6.80
2022-10-04T04:49:23.115Z,7.70
2022-10-04T04:50:23.108Z,8.30
2022-10-04T04:51:23.129Z,6.70
2022-10-04T04:52:23.132Z,9.40
2022-10-04T04:53:23.136Z,6.90
2022-10-04T04:54:23.175Z,7.60
2022-10-04T04:55:23.165Z,7.50
2022-10-04T04:56:23.177Z,9.10
2022-10-04T04:57:23.189Z,8.80
2022-10-04T04:58:23.197Z,7.60
2022-10-04T04:59:23.218Z,8.70
2022-10-04T05:00:23.219Z,7.60
2022-10-04T05:01:23.323Z,9.40
2022-10-04T05:02:23.277Z,8.80
2022-10-04T05:03:23.248Z,9.50
2022-10-04T05:04:23.289Z,13.60
2022-10-04T05:05:23.268Z,9.90
2022-10-04T05:06:23.277Z,8.30
2022-10-04T05:07:23.281Z,10.40
2022-10-04T05:08:23.297Z,10.20
2022-10-04T05:09:23.318Z,9.80
2022-10-04T05:10:23.309Z,10.90
2022-10-04T05:11:23.338Z,12.10
2022-10-04T05:12:23.340Z,9.30
2022-10-04T05:13:23.339Z,11.30
2022-10-04T05:14:23.378Z,9.80
2022-10-04T05:15:23.380Z,11.60
2022-10-04T05:16:23.444Z,9.60
2022-10-04T05:17:23.402Z,17.00
2022-10-04T05:18:23.430Z,14.40
2022-10-04T05:19:23.451Z,13.80
2022-10-04T05:20:23.441Z,15.10
2022-10-04T05:21:23.449Z,15.70
2022-10-04T05:22:23.476Z,12.50
2022-10-04T05:23:23.462Z,13.60
2022-10-04T05:24:23.501Z,14.00
2022-10-04T05:25:23.482Z,11.00
2022-10-04T05:26:23.499Z,8.30
2022-10-04T05:27:23.504Z,9.60
2022-10-04T05:28:23.575Z,10.00
2022-10-04T05:29:23.553Z,10.10
2022-10-04T05:30:23.561Z,8.80
2022-10-04T05:31:23.649Z,10.20
2022-10-04T05:32:23.603Z,10.00
2022-10-04T05:33:23.616Z,7.20
2022-10-04T05:34:23.663Z,11.60
2022-10-04T05:35:23.649Z,4.70
2022-10-04T05:36:23.673Z,6.70
2022-10-04T05:37:23.672Z,7.70
2022-10-04T05:38:23.694Z,7.60
2022-10-04T05:39:23.719Z,8.50
2022-10-04T05:40:23.714Z,6.50
2022-10-04T05:41:23.725Z,8.20
2022-10-04T05:42:23.745Z,11.60
2022-10-04T05:43:23.746Z,7.10
2022-10-04T05:44:23.787Z,8.10
2022-10-04T05:45:23.786Z,8.70
2022-10-04T05:46:23.817Z,8.80
2022-10-04T05:47:23.843Z,6.80
2022-10-04T05:48:23.836Z,8.20
2022-10-04T05:49:23.866Z,6.30
2022-10-04T05:50:23.866Z,9.80
2022-10-04T05:51:23.868Z,9.30
2022-10-04T05:52:23.897Z,9.10
2022-10-04T05:53:23.900Z,9.10
2022-10-04T05:54:23.930Z,8.60
2022-10-04T05:55:23.935Z,8.00
2022-10-04T05:56:23.951Z,7.20
2022-10-04T05:57:23.980Z,7.70
2022-10-04T05:58:23.966Z,10.70
2022-10-04T05:59:23.999Z,8.80
2022-10-04T06:00:24.001Z,10.30
2022-10-04T06:01:24.053Z,14.60
2022-10-04T06:02:24.050Z,18.50
2022-10-04T06:03:24.009Z,21.00
2022-10-04T06:04:24.048Z,27.70
2022-10-04T06:05:28.153Z,22.90
2022-10-04T06:06:25.059Z,15.90
2022-10-04T06:07:24.071Z,10.40
2022-10-04T06:08:24.072Z,13.70
2022-10-04T06:09:24.098Z,9.00
2022-10-04T06:10:24.091Z,8.40
2022-10-04T06:11:24.091Z,8.40
2022-10-04T06:12:24.122Z,9.60
2022-10-04T06:13:24.122Z,10.40
2022-10-04T06:14:24.169Z,11.80
2022-10-04T06:15:24.132Z,10.40
2022-10-04T06:16:24.256Z,6.90
2022-10-04T06:17:24.163Z,10.90
2022-10-04T06:18:24.173Z,8.90
2022-10-04T06:19:24.200Z,7.00
2022-10-04T06:20:24.173Z,7.60
2022-10-04T06:21:24.184Z,8.00
2022-10-04T06:22:24.194Z,8.00
2022-10-04T06:23:24.195Z,8.90
2022-10-04T06:24:26.909Z,8.40
2022-10-04T06:25:24.234Z,8.20
2022-10-04T06:26:24.241Z,8.20
2022-10-04T06:27:24.235Z,8.70
2022-10-04T06:28:24.277Z,6.80
2022-10-04T06:29:24.276Z,7.50
2022-10-04T06:30:24.298Z,7.90
2022-10-04T06:31:24.289Z,7.60
2022-10-04T06:32:24.276Z,7.40
2022-10-04T06:33:24.283Z,7.60
2022-10-04T06:34:24.317Z,6.30
2022-10-04T06:35:24.297Z,7.40
2022-10-04T06:36:24.307Z,5.80
2022-10-04T06:37:24.314Z,6.50
2022-10-04T06:38:24.306Z,8.90
2022-10-04T06:39:24.306Z,8.50
2022-10-04T06:40:24.328Z,8.70
2022-10-04T06:41:24.308Z,7.90
2022-10-04T06:42:24.327Z,9.20
2022-10-04T06:43:24.328Z,8.50
2022-10-04T06:44:24.346Z,9.10
2022-10-04T06:45:24.348Z,8.80
2022-10-04T06:46:24.394Z,7.40
2022-10-04T06:47:24.361Z,10.40
2022-10-04T06:48:24.368Z,11.00
2022-10-04T06:49:24.386Z,11.50
2022-10-04T06:50:24.398Z,9.50
2022-10-04T06:51:24.390Z,12.30
2022-10-04T06:52:24.399Z,12.50
2022-10-04T06:53:24.401Z,13.30
2022-10-04T06:54:24.421Z,12.60
2022-10-04T06:55:24.428Z,12.60
2022-10-04T06:56:24.421Z,13.30
2022-10-04T06:57:24.430Z,15.20
2022-10-04T06:58:24.441Z,13.00
2022-10-04T06:59:24.443Z,13.90
2022-10-04T07:00:24.524Z,13.60
2022-10-04T07:01:24.502Z,14.70
2022-10-04T07:02:24.478Z,15.70
2022-10-04T07:03:24.434Z,15.60
2022-10-04T07:04:24.435Z,19.30
2022-10-04T07:05:24.433Z,20.30
2022-10-04T07:06:24.444Z,24.90
2022-10-04T07:07:24.448Z,36.90
2022-10-04T07:08:24.440Z,30.00
2022-10-04T07:09:24.433Z,20.70
2022-10-04T07:10:24.481Z,18.90
2022-10-04T07:11:24.438Z,14.80
2022-10-04T07:12:24.455Z,14.90
2022-10-04T07:13:24.586Z,15.10
2022-10-04T07:14:24.444Z,16.90
2022-10-04T07:15:24.455Z,15.10
2022-10-04T07:16:24.491Z,14.10
2022-10-04T07:17:24.445Z,15.20
2022-10-04T07:18:24.446Z,12.80
2022-10-04T07:19:24.438Z,14.20
2022-10-04T07:20:24.476Z,12.00
2022-10-04T07:21:24.445Z,14.00
2022-10-04T07:22:24.517Z,16.60
2022-10-04T07:23:28.383Z,14.40
2022-10-04T07:24:24.436Z,18.00
2022-10-04T07:25:24.456Z,13.40
2022-10-04T07:26:24.437Z,14.40
2022-10-04T07:27:24.410Z,14.80
2022-10-04T07:28:24.431Z,15.00
2022-10-04T07:29:24.388Z,14.90
2022-10-04T07:30:24.398Z,15.60
2022-10-04T07:31:24.461Z,13.20
2022-10-04T07:32:24.401Z,16.20
2022-10-04T07:33:24.386Z,16.20
2022-10-04T07:34:24.370Z,13.70
2022-10-04T07:35:24.377Z,14.90
2022-10-04T07:36:24.376Z,12.30
2022-10-04T07:37:24.377Z,12.10
2022-10-04T07:38:24.360Z,11.40
2022-10-04T07:39:24.351Z,11.20
2022-10-04T07:40:24.324Z,9.70
2022-10-04T07:41:24.310Z,9.30
2022-10-04T07:42:24.320Z,8.30
2022-10-04T07:43:24.300Z,9.90
2022-10-04T07:44:24.281Z,8.50
2022-10-04T07:45:29.105Z,7.70
2022-10-04T07:46:25.370Z,11.00
2022-10-04T07:47:24.285Z,8.50
2022-10-04T07:48:24.245Z,11.60
2022-10-04T07:49:24.254Z,8.40
2022-10-04T07:50:24.233Z,8.60
2022-10-04T07:51:24.222Z,10.50
2022-10-04T07:52:24.213Z,10.10
2022-10-04T07:53:24.193Z,11.30
2022-10-04T07:54:24.183Z,10.00
2022-10-04T07:55:24.173Z,8.40
2022-10-04T07:56:24.153Z,12.90
2022-10-04T07:57:24.165Z,7.00
2022-10-04T07:58:24.165Z,9.30
2022-10-04T07:59:24.144Z,9.30
2022-10-04T08:00:24.134Z,8.10
2022-10-04T08:01:24.127Z,8.40
2022-10-04T08:02:27.752Z,11.70
2022-10-04T08:03:25.200Z,11.10
2022-10-04T08:04:24.109Z,13.00
2022-10-04T08:05:24.116Z,11.50
2022-10-04T08:06:24.085Z,10.10
2022-10-04T08:07:24.086Z,12.10
2022-10-04T08:08:24.087Z,10.60
2022-10-04T08:09:24.061Z,11.00
2022-10-04T08:10:24.058Z,10.70
2022-10-04T08:11:24.048Z,9.90
2022-10-04T08:12:24.029Z,9.60
2022-10-04T08:13:24.566Z,7.70
2022-10-04T08:14:23.999Z,7.10
2022-10-04T08:15:23.988Z,10.20
2022-10-04T08:16:24.032Z,9.00
2022-10-04T08:17:23.938Z,10.70
2022-10-04T08:18:23.929Z,9.20
2022-10-04T08:19:23.907Z,10.50
2022-10-04T08:20:23.893Z,10.40
2022-10-04T08:21:23.870Z,15.50
2022-10-04T08:22:23.858Z,10.00
2022-10-04T08:23:23.871Z,9.80
2022-10-04T08:24:23.791Z,8.70
2022-10-04T08:25:23.785Z,9.70
2022-10-04T08:26:23.762Z,9.60
2022-10-04T08:27:23.742Z,9.10
2022-10-04T08:28:23.697Z,8.50
2022-10-04T08:29:23.671Z,8.10
2022-10-04T08:30:23.641Z,7.80
2022-10-04T08:31:23.641Z,10.70
2022-10-04T08:32:23.573Z,9.90
2022-10-04T08:33:23.556Z,10.10
2022-10-04T08:34:23.523Z,10.10
2022-10-04T08:35:23.493Z,11.70
2022-10-04T08:36:23.464Z,8.70
2022-10-04T08:37:23.435Z,10.00
2022-10-04T08:38:23.414Z,7.10
2022-10-04T08:39:23.395Z,8.60
2022-10-04T08:40:23.357Z,8.40
2022-10-04T08:41:23.326Z,9.10
2022-10-04T08:42:23.296Z,8.60
2022-10-04T08:43:23.277Z,10.30
2022-10-04T08:44:23.278Z,9.30
2022-10-04T08:45:23.236Z,9.60
2022-10-04T08:46:23.234Z,8.50
2022-10-04T08:47:23.167Z,8.50
2022-10-04T08:48:23.139Z,8.70
2022-10-04T08:49:23.112Z,11.40
2022-10-04T08:50:23.075Z,7.80
2022-10-04T08:51:23.038Z,6.00
2022-10-04T08:52:23.010Z,8.00
2022-10-04T08:53:22.988Z,9.30
2022-10-04T08:54:22.959Z,8.00
2022-10-04T08:55:22.938Z,7.60
2022-10-04T08:56:22.902Z,9.00
2022-10-04T08:57:22.879Z,9.40
2022-10-04T08:58:22.848Z,8.80
2022-10-04T08:59:22.819Z,9.60
2022-10-04T09:00:22.801Z,8.30
2022-10-04T09:01:22.842Z,6.10
2022-10-04T09:02:22.757Z,7.70
2022-10-04T09:03:24.867Z,8.50
2022-10-04T09:04:22.669Z,7.10
2022-10-04T09:05:22.661Z,7.60
2022-10-04T09:06:22.631Z,7.40
2022-10-04T09:07:22.612Z,9.60
2022-10-04T09:08:22.554Z,7.40
2022-10-04T09:09:22.534Z,7.70
2022-10-04T09:10:25.155Z,10.20
2022-10-04T09:11:22.482Z,9.60
2022-10-04T09:12:22.433Z,12.90
2022-10-04T09:13:22.393Z,10.40
2022-10-04T09:14:22.354Z,12.30
2022-10-04T09:15:22.334Z,14.10
2022-10-04T09:16:22.368Z,12.00
2022-10-04T09:17:23.003Z,12.50
2022-10-04T09:18:22.214Z,13.50
2022-10-04T09:19:22.186Z,12.30
2022-10-04T09:20:37.250Z,9.70
2022-10-04T09:21:23.115Z,9.20
2022-10-04T09:22:22.054Z,12.40
2022-10-04T09:23:22.017Z,10.00
2022-10-04T09:24:21.969Z,12.80
2022-10-04T09:25:21.927Z,7.30
2022-10-04T09:26:21.879Z,9.00
2022-10-04T09:27:43.220Z,6.30
2022-10-04T09:28:22.817Z,5.50
2022-10-04T09:29:21.740Z,7.40
2022-10-04T09:30:21.689Z,8.10
2022-10-04T09:31:21.703Z,6.80
2022-10-04T09:32:21.620Z,7.60
2022-10-04T09:33:21.551Z,5.10
2022-10-04T09:34:21.487Z,6.00
2022-10-04T09:35:21.448Z,7.00
2022-10-04T09:36:21.380Z,9.00
2022-10-04T09:37:21.351Z,9.40
2022-10-04T09:38:21.291Z,4.60
2022-10-04T09:39:29.932Z,7.70
2022-10-04T09:40:22.189Z,6.00
2022-10-04T09:41:21.152Z,8.00
2022-10-04T09:42:21.092Z,6.70
2022-10-04T09:43:21.055Z,7.10
2022-10-04T09:44:20.982Z,7.00
2022-10-04T09:45:20.944Z,6.60
2022-10-04T09:46:20.927Z,7.00
2022-10-04T09:47:20.843Z,7.70
2022-10-04T09:48:20.774Z,5.10
2022-10-04T09:49:20.724Z,8.20
2022-10-04T09:50:20.665Z,5.90
2022-10-04T09:51:20.607Z,5.50
2022-10-04T09:52:20.551Z,5.20
2022-10-04T09:53:20.493Z,4.70
2022-10-04T09:54:20.414Z,4.40
2022-10-04T09:55:20.356Z,5.00
2022-10-04T09:56:20.290Z,4.50
2022-10-04T09:57:20.255Z,6.00
2022-10-04T09:58:20.177Z,5.90
2022-10-04T09:59:20.108Z,5.40
2022-10-04T10:00:20.028Z,4.90
2022-10-04T10:01:19.999Z,5.40
2022-10-04T10:02:19.953Z,5.20
2022-10-04T10:03:19.875Z,6.40
2022-10-04T10:04:19.779Z,3.30
2022-10-04T10:05:19.709Z,3.20
2022-10-04T10:06:19.621Z,5.20
2022-10-04T10:07:19.570Z,2.90
2022-10-04T10:08:19.500Z,4.70
2022-10-04T10:09:19.423Z,4.20
2022-10-04T10:10:19.339Z,4.10
2022-10-04T10:11:19.271Z,4.90
2022-10-04T10:12:19.214Z,3.60
2022-10-04T10:13:19.152Z,3.90
2022-10-04T10:14:19.072Z,3.50
2022-10-04T10:15:18.991Z,3.70
2022-10-04T10:16:19.010Z,3.90
2022-10-04T10:17:18.862Z,5.00
2022-10-04T10:18:18.815Z,4.20
2022-10-04T10:19:18.723Z,2.80
2022-10-04T10:20:18.653Z,3.40
2022-10-04T10:21:18.604Z,5.60
2022-10-04T10:22:18.523Z,4.90
2022-10-04T10:23:18.540Z,6.00
2022-10-04T10:24:18.404Z,4.10
2022-10-04T10:25:18.334Z,3.80
2022-10-04T10:26:18.257Z,7.00
2022-10-04T10:27:18.207Z,2.70
2022-10-04T10:28:18.194Z,5.50
2022-10-04T10:29:18.092Z,5.50
2022-10-04T10:30:18.008Z,3.70
2022-10-04T10:31:17.974Z,3.50
2022-10-04T10:32:17.878Z,5.70
2022-10-04T10:33:17.816Z,4.70
2022-10-04T10:34:17.758Z,7.50
2022-10-04T10:35:17.717Z,5.00
2022-10-04T10:36:17.630Z,1.80
2022-10-04T10:37:17.565Z,2.40
2022-10-04T10:38:17.498Z,5.50
2022-10-04T10:39:17.459Z,3.40
2022-10-04T10:40:17.371Z,9.00
2022-10-04T10:41:17.317Z,4.00
2022-10-04T10:42:17.241Z,3.50
2022-10-04T10:43:17.171Z,4.90
2022-10-04T10:44:17.101Z,2.60
2022-10-04T10:45:17.042Z,3.90
2022-10-04T10:46:17.039Z,5.80
2022-10-04T10:47:16.912Z,6.70
2022-10-04T10:48:16.832Z,4.10
2022-10-04T10:49:21.410Z,6.20
2022-10-04T10:50:17.702Z,6.30
2022-10-04T10:51:16.624Z,6.20
2022-10-04T10:52:16.554Z,5.10
2022-10-04T10:53:16.494Z,4.60
2022-10-04T10:54:16.417Z,6.30
2022-10-04T10:55:16.367Z,5.30
2022-10-04T10:56:16.283Z,2.00
2022-10-04T10:57:16.215Z,6.50
2022-10-04T10:58:16.157Z,6.50
2022-10-04T10:59:16.087Z,5.00
2022-10-04T11:00:16.025Z,3.80
2022-10-04T11:01:16.002Z,9.10
2022-10-04T11:02:15.994Z,6.10
2022-10-04T11:03:18.200Z,5.30
2022-10-04T11:04:15.744Z,3.30
2022-10-04T11:05:15.700Z,4.00
2022-10-04T11:06:15.610Z,4.70
2022-10-04T11:07:15.562Z,5.70
2022-10-04T11:08:15.469Z,4.10
2022-10-04T11:09:15.410Z,3.70
2022-10-04T11:10:15.359Z,3.90
2022-10-04T11:11:15.279Z,4.60
2022-10-04T11:12:15.211Z,7.10
2022-10-04T11:13:15.141Z,4.20
2022-10-04T11:14:15.070Z,4.70
2022-10-04T11:15:15.022Z,4.50
2022-10-04T11:16:15.024Z,4.00
2022-10-04T11:17:14.871Z,3.50
2022-10-04T11:18:14.812Z,6.50
2022-10-04T11:19:14.744Z,4.30
2022-10-04T11:20:14.682Z,6.70
2022-10-04T11:21:14.621Z,6.40
2022-10-04T11:22:14.553Z,3.50
2022-10-04T11:23:14.515Z,7.10
2022-10-04T11:24:14.417Z,5.20
2022-10-04T11:25:14.374Z,8.20
2022-10-04T11:26:14.295Z,6.10
2022-10-04T11:27:14.224Z,4.80
2022-10-04T11:28:14.204Z,4.70
2022-10-04T11:29:14.104Z,6.70
2022-10-04T11:30:14.035Z,6.00
2022-10-04T11:31:14.016Z,3.70
2022-10-04T11:32:13.907Z,6.60
2022-10-04T11:33:13.837Z,3.70
2022-10-04T11:34:16.773Z,3.70
2022-10-04T11:35:13.719Z,5.30
2022-10-04T11:36:13.648Z,4.30
2022-10-04T11:37:13.577Z,3.60
2022-10-04T11:38:13.507Z,5.20
2022-10-04T11:39:13.451Z,4.30
2022-10-04T11:40:13.389Z,4.60
2022-10-04T11:41:13.329Z,3.60
2022-10-04T11:42:13.257Z,4.60
2022-10-04T11:43:13.209Z,5.30
2022-10-04T11:44:13.143Z,2.90
2022-10-04T11:45:13.140Z,6.20
2022-10-04T11:46:13.106Z,4.60
2022-10-04T11:47:13.084Z,3.60
2022-10-04T11:48:12.879Z,4.20
2022-10-04T11:49:12.813Z,5.60
2022-10-04T11:50:12.763Z,2.80
2022-10-04T11:51:12.674Z,5.30
2022-10-04T11:52:12.615Z,4.10
2022-10-04T11:53:12.530Z,5.50
2022-10-04T11:54:12.470Z,4.50
2022-10-04T11:55:12.402Z,6.10
2022-10-04T11:56:12.355Z,2.80
2022-10-04T11:57:12.284Z,5.00
2022-10-04T11:58:12.307Z,6.50
2022-10-04T11:59:12.125Z,5.10
2022-10-04T12:00:12.055Z,4.70
2022-10-04T12:01:11.988Z,5.90
2022-10-04T12:02:11.916Z,5.10
2022-10-04T12:03:11.906Z,5.30
2022-10-04T12:04:11.923Z,6.60
2022-10-04T12:05:11.698Z,8.50
2022-10-04T12:06:11.638Z,7.00
2022-10-04T12:07:11.550Z,4.60
2022-10-04T12:08:11.497Z,3.70
2022-10-04T12:09:11.408Z,7.90
2022-10-04T12:10:11.325Z,4.80
2022-10-04T12:11:11.241Z,5.60
2022-10-04T12:12:11.180Z,3.20
2022-10-04T12:13:11.100Z,5.30
2022-10-04T12:14:11.009Z,8.30
2022-10-04T12:15:10.920Z,8.40
2022-10-04T12:16:10.921Z,3.80
2022-10-04T12:17:10.761Z,5.10
2022-10-04T12:18:10.692Z,5.80
2022-10-04T12:19:10.613Z,6.10
2022-10-04T12:20:12.314Z,4.70
2022-10-04T12:21:10.424Z,5.40
2022-10-04T12:22:10.363Z,4.60
2022-10-04T12:23:10.293Z,5.00
2022-10-04T12:24:10.193Z,2.30
2022-10-04T12:25:10.126Z,7.60
2022-10-04T12:26:10.014Z,9.40
2022-10-04T12:27:09.938Z,2.80
2022-10-04T12:28:09.891Z,4.20
2022-10-04T12:29:09.784Z,6.10
2022-10-04T12:30:09.685Z,4.90
2022-10-04T12:31:09.642Z,5.00
2022-10-04T12:32:09.536Z,5.00
2022-10-04T12:33:09.447Z,3.80
2022-10-04T12:34:09.375Z,7.90
2022-10-04T12:35:09.287Z,4.00
2022-10-04T12:36:09.209Z,5.40
2022-10-04T12:37:09.129Z,5.00
2022-10-04T12:38:09.038Z,4.90
2022-10-04T12:39:08.979Z,4.30
2022-10-04T12:40:08.890Z,5.70
2022-10-04T12:41:08.809Z,5.00
2022-10-04T12:42:08.720Z,5.20
2022-10-04T12:43:08.630Z,4.30
2022-10-04T12:44:08.569Z,2.50
2022-10-04T12:45:08.480Z,5.50
2022-10-04T12:46:08.409Z,4.40
2022-10-04T12:47:08.293Z,4.80
2022-10-04T12:48:08.204Z,5.10
2022-10-04T12:49:08.114Z,7.40
2022-10-04T12:50:08.052Z,5.50
2022-10-04T12:51:07.950Z,3.90
2022-10-04T12:52:07.873Z,6.30
2022-10-04T12:53:07.792Z,4.20
2022-10-04T12:54:07.714Z,6.50
2022-10-04T12:55:07.644Z,5.40
2022-10-04T12:56:07.564Z,4.70
2022-10-04T12:57:07.465Z,5.10
2022-10-04T12:58:07.385Z,3.60
2022-10-04T12:59:07.306Z,6.10
2022-10-04T13:00:07.228Z,3.70
2022-10-04T13:01:07.173Z,8.40
2022-10-04T13:02:07.117Z,4.10
2022-10-04T13:03:06.966Z,4.40
2022-10-04T13:04:06.876Z,5.10
2022-10-04T13:05:06.878Z,3.80
2022-10-04T13:06:06.696Z,4.10
2022-10-04T13:07:06.607Z,2.20
2022-10-04T13:08:06.521Z,5.70
2022-10-04T13:09:06.440Z,3.30
2022-10-04T13:10:23.706Z,6.50
2022-10-04T13:11:07.279Z,6.50